首页
METAR-TAF:

METAR-TAF

机场 :

帕斯托, 哥伦比亚

纬度: 01-25N, 经度: 077-16W, 海拔: 1826米

当前天气观测

该预报发布于3小时和26分钟前的22:00 UTC
风速3节,风向,在西北北转东北之间变化
温度 20°C
湿度 88%
气压 1020 hPa
能見度: 1600
散云层高于100英尺
散云层高于1200英尺
多云层高于8000英尺
碎片雾,

METAR: SKPS 242200Z 35003KT 320V030 9999 1600N BCFG SCT001 SCT012 BKN080 20/18 Q1020

时间: 20:26 (01:26 UTC)


TAF: 丢失

超过4000个机场的气象观测和天气预报(METAR&TAF报告)。

可查询的气象台以黄色和红色小点在地图上表示。

将鼠标移到小点上方,可查看气象台名称。

然后点击查看天气观测和预报。

如需切换地图:点击带黑十字的绿色按钮放大地图;点击带横线的绿色按钮缩小地图;或者点击绿色箭头查看邻近地区的地图。


METAR-TAF: